Time;durP1;ratioP1;P1;durP2;ratioP2;P2;SDS_P1;SDS_P2;PMS_P1;PMS_P2;Temp;Humidity;BMP_temperature;BMP_pressure;BME280_temperature;BME280_humidity;BME280_pressure;Samples;Min_cycle;Max_cycle;Signal;HPM_P1;HPM_P2
2022/06/05 00:02:43;;;;;;;10.40;6.03;;;;;;;;;;5035489;28;20045;-82
2022/06/05 00:06:02;;;;;;;13.40;5.88;;;;;;;;;;5040021;28;20064;-81
2022/06/05 00:09:13;;;;;;;11.50;6.45;;;;;;;;;;5040205;28;20049;-82
2022/06/05 00:12:02;;;;;;;17.52;6.53;;;;;;;;;;5040787;28;20049;-81
2022/06/05 00:14:48;;;;;;;14.50;6.53;;;;;;;;;;5034195;28;20045;-81
2022/06/05 00:17:42;;;;;;;13.65;7.13;;;;;;;;;;5032968;28;20080;-82
2022/06/05 00:20:29;;;;;;;12.27;6.22;;;;;;;;;;5035181;28;20041;-82
2022/06/05 00:23:14;;;;;;;10.15;5.93;;;;;;;;;;5027191;28;20045;-83
2022/06/05 00:26:22;;;;;;;13.32;6.18;;;;;;;;;;5041406;28;20402;-82
2022/06/05 00:29:25;;;;;;;15.35;6.63;;;;;;;;;;5034900;28;20046;-82
2022/06/05 00:32:43;;;;;;;17.02;6.95;;;;;;;;;;5026659;28;20037;-82
2022/06/05 00:35:32;;;;;;;16.58;6.45;;;;;;;;;;5014601;28;20049;-82
2022/06/05 00:39:05;;;;;;;13.95;6.90;;;;;;;;;;5042934;28;20053;-80
2022/06/05 00:41:58;;;;;;;13.85;6.88;;;;;;;;;;5031425;28;20049;-82
2022/06/05 00:44:50;;;;;;;15.07;6.80;;;;;;;;;;5041726;28;20045;-81
2022/06/05 00:47:37;;;;;;;17.90;6.72;;;;;;;;;;5034168;28;20494;-82
2022/06/05 00:50:30;;;;;;;12.00;6.47;;;;;;;;;;5042246;28;20037;-78
2022/06/05 00:53:16;;;;;;;13.65;5.75;;;;;;;;;;5035022;28;20049;-80
2022/06/05 00:56:01;;;;;;;11.40;6.00;;;;;;;;;;5034373;28;20034;-80
2022/06/05 00:58:47;;;;;;;10.80;5.80;;;;;;;;;;5034488;28;20045;-80
2022/06/05 01:01:33;;;;;;;8.88;5.78;;;;;;;;;;5034431;28;20093;-80
2022/06/05 01:04:20;;;;;;;10.20;5.60;;;;;;;;;;5034182;28;20593;-80
2022/06/05 01:07:06;;;;;;;10.38;5.72;;;;;;;;;;5026093;28;20398;-80
2022/06/05 01:09:52;;;;;;;13.52;6.18;;;;;;;;;;5040937;28;20045;-80
2022/06/05 01:12:50;;;;;;;8.52;5.68;;;;;;;;;;5034193;28;20041;-80
2022/06/05 01:15:56;;;;;;;10.40;6.53;;;;;;;;;;5034348;28;20033;-80
2022/06/05 01:18:54;;;;;;;9.00;5.53;;;;;;;;;;5034507;28;20058;-80
2022/06/05 01:22:07;;;;;;;12.32;6.00;;;;;;;;;;5034134;28;20052;-80
2022/06/05 01:25:18;;;;;;;12.02;6.25;;;;;;;;;;5033965;28;20037;-80
2022/06/05 01:28:08;;;;;;;11.50;5.97;;;;;;;;;;5034124;28;20053;-80
2022/06/05 01:31:05;;;;;;;8.82;5.88;;;;;;;;;;5034724;28;20046;-80
2022/06/05 01:34:19;;;;;;;10.20;5.65;;;;;;;;;;5034757;28;20045;-80
2022/06/05 01:37:14;;;;;;;11.23;6.82;;;;;;;;;;5034188;28;20053;-80
2022/06/05 01:40:04;;;;;;;8.55;6.07;;;;;;;;;;5034682;28;20054;-80
2022/06/05 01:42:57;;;;;;;9.40;5.88;;;;;;;;;;5034158;28;20045;-79
2022/06/05 01:45:56;;;;;;;13.52;6.78;;;;;;;;;;5033742;28;20041;-80
2022/06/05 01:48:49;;;;;;;21.85;6.88;;;;;;;;;;5041348;28;20041;-80
2022/06/05 01:51:53;;;;;;;16.23;6.28;;;;;;;;;;5034144;28;20042;-80
2022/06/05 01:55:02;;;;;;;12.20;6.45;;;;;;;;;;5033986;28;20104;-80
2022/06/05 01:57:51;;;;;;;10.82;6.43;;;;;;;;;;5033850;28;20056;-80
2022/06/05 02:00:37;;;;;;;13.82;6.50;;;;;;;;;;5034115;28;20045;-80
2022/06/05 02:03:28;;;;;;;15.27;6.75;;;;;;;;;;5034089;28;20049;-80
2022/06/05 02:06:20;;;;;;;15.40;6.85;;;;;;;;;;5033182;28;20045;-79
2022/06/05 02:09:11;;;;;;;14.27;6.60;;;;;;;;;;5040538;28;20041;-80
2022/06/05 02:11:56;;;;;;;13.93;6.68;;;;;;;;;;5033668;28;20419;-81
2022/06/05 02:14:42;;;;;;;17.67;7.45;;;;;;;;;;5025461;28;20037;-81
2022/06/05 02:17:31;;;;;;;13.68;7.72;;;;;;;;;;5036857;28;20037;-80
2022/06/05 02:20:16;;;;;;;11.57;7.50;;;;;;;;;;5044075;28;20045;-80
2022/06/05 02:23:05;;;;;;;9.40;6.55;;;;;;;;;;5037433;28;20038;-80
2022/06/05 02:25:50;;;;;;;17.08;7.45;;;;;;;;;;5037297;28;20045;-80
2022/06/05 02:28:37;;;;;;;12.15;7.25;;;;;;;;;;5037514;28;20049;-80
2022/06/05 02:31:40;;;;;;;13.55;7.72;;;;;;;;;;5037154;28;20041;-81
2022/06/05 02:34:47;;;;;;;19.20;7.15;;;;;;;;;;5037122;28;20043;-80
2022/06/05 02:37:43;;;;;;;13.98;7.50;;;;;;;;;;5036824;28;20053;-80
2022/06/05 02:41:04;;;;;;;12.45;7.25;;;;;;;;;;5037291;28;20049;-80
2022/06/05 02:47:19;;;;;;;12.00;6.35;;;;;;;;;;5037378;28;20038;-81
2022/06/05 02:50:07;;;;;;;10.82;6.65;;;;;;;;;;5029089;28;20041;-82
2022/06/05 02:53:01;;;;;;;10.25;6.13;;;;;;;;;;5038585;28;20033;-81
2022/06/05 02:55:46;;;;;;;11.15;6.10;;;;;;;;;;5055193;28;20041;-80
2022/06/05 02:58:33;;;;;;;10.55;6.00;;;;;;;;;;5037385;28;20037;-81
2022/06/05 03:04:22;;;;;;;10.15;6.72;;;;;;;;;;5036883;28;20041;-82
2022/06/05 03:07:08;;;;;;;15.63;6.80;;;;;;;;;;5043270;28;20490;-81
2022/06/05 03:09:54;;;;;;;11.80;6.90;;;;;;;;;;5036494;28;20041;-81
2022/06/05 03:12:38;;;;;;;11.23;6.75;;;;;;;;;;5036703;28;20049;-81
2022/06/05 03:15:23;;;;;;;11.77;7.13;;;;;;;;;;5036460;28;20041;-81
2022/06/05 03:18:12;;;;;;;12.68;7.18;;;;;;;;;;5043471;28;20053;-81
2022/06/05 03:20:58;;;;;;;14.88;6.32;;;;;;;;;;5036618;28;20050;-81
2022/06/05 03:23:43;;;;;;;8.68;6.88;;;;;;;;;;5042923;28;20053;-81
2022/06/05 03:26:29;;;;;;;13.73;6.75;;;;;;;;;;5036462;28;20037;-81
2022/06/05 03:29:14;;;;;;;12.65;7.18;;;;;;;;;;5028407;28;20042;-81
2022/06/05 03:32:00;;;;;;;15.35;7.32;;;;;;;;;;5036266;28;20398;-81
2022/06/05 03:34:45;;;;;;;14.23;6.88;;;;;;;;;;5036141;28;20037;-81
2022/06/05 03:37:31;;;;;;;13.65;7.18;;;;;;;;;;5035642;28;20479;-81
2022/06/05 03:40:17;;;;;;;10.02;6.57;;;;;;;;;;5042857;28;20049;-81
2022/06/05 03:43:03;;;;;;;11.20;6.32;;;;;;;;;;5042401;28;20049;-81
2022/06/05 03:45:47;;;;;;;12.82;6.70;;;;;;;;;;5035636;28;20053;-81
2022/06/05 03:48:34;;;;;;;10.95;6.47;;;;;;;;;;5036233;28;20426;-80
2022/06/05 03:51:21;;;;;;;10.45;6.93;;;;;;;;;;5035766;28;20483;-78
2022/06/05 03:54:07;;;;;;;13.88;7.15;;;;;;;;;;5036132;28;20487;-80
2022/06/05 03:56:52;;;;;;;16.00;7.47;;;;;;;;;;5042474;28;20045;-80
2022/06/05 03:59:38;;;;;;;13.75;7.63;;;;;;;;;;5035697;28;20041;-80
2022/06/05 04:02:25;;;;;;;9.52;7.25;;;;;;;;;;5035984;28;20052;-80
2022/06/05 04:05:15;;;;;;;12.48;6.97;;;;;;;;;;5035541;28;20402;-80
2022/06/05 04:08:00;;;;;;;13.30;6.72;;;;;;;;;;5035420;28;20049;-80
2022/06/05 04:10:46;;;;;;;13.68;7.28;;;;;;;;;;5035866;28;20053;-80
2022/06/05 04:13:32;;;;;;;10.98;7.57;;;;;;;;;;5035294;28;20049;-80
2022/06/05 04:16:23;;;;;;;13.32;6.93;;;;;;;;;;5041948;28;20483;-80
2022/06/05 04:19:10;;;;;;;14.38;6.72;;;;;;;;;;5035181;28;20053;-81
2022/06/05 04:21:55;;;;;;;13.55;6.50;;;;;;;;;;5042099;28;20387;-81
2022/06/05 04:24:41;;;;;;;11.90;6.80;;;;;;;;;;5035515;28;20053;-81
2022/06/05 04:27:26;;;;;;;13.75;7.03;;;;;;;;;;5035411;28;20475;-81
2022/06/05 04:30:12;;;;;;;13.23;6.72;;;;;;;;;;5035565;28;20046;-81
2022/06/05 04:32:59;;;;;;;8.80;6.60;;;;;;;;;;5041926;28;20045;-81
2022/06/05 04:35:44;;;;;;;15.85;7.35;;;;;;;;;;5042100;28;20049;-79
2022/06/05 04:38:30;;;;;;;10.68;6.88;;;;;;;;;;5034674;28;20061;-79
2022/06/05 04:41:18;;;;;;;14.00;6.65;;;;;;;;;;5035330;28;20463;-79
2022/06/05 04:44:05;;;;;;;13.30;6.35;;;;;;;;;;5035423;28;20033;-79
2022/06/05 04:46:52;;;;;;;11.35;7.00;;;;;;;;;;5034813;28;20041;-79
2022/06/05 04:49:37;;;;;;;10.63;6.88;;;;;;;;;;5041396;28;20057;-80
2022/06/05 04:52:23;;;;;;;16.98;7.50;;;;;;;;;;5034953;28;20397;-80
2022/06/05 04:55:08;;;;;;;15.75;6.78;;;;;;;;;;5041506;28;20045;-79
2022/06/05 04:57:54;;;;;;;20.60;7.15;;;;;;;;;;5019912;28;20053;-79
2022/06/05 05:00:40;;;;;;;14.77;6.75;;;;;;;;;;5035183;28;20041;-79
2022/06/05 05:03:26;;;;;;;17.90;6.35;;;;;;;;;;5041659;28;20041;-80
2022/06/05 05:06:13;;;;;;;12.85;6.82;;;;;;;;;;5035381;28;20037;-80
2022/06/05 05:08:58;;;;;;;13.13;6.43;;;;;;;;;;5042533;28;20499;-80
2022/06/05 05:11:44;;;;;;;15.23;6.28;;;;;;;;;;5041214;28;20037;-80
2022/06/05 05:14:29;;;;;;;18.80;6.97;;;;;;;;;;5034743;28;20049;-80
2022/06/05 05:17:15;;;;;;;15.63;6.57;;;;;;;;;;5041030;28;20041;-80
2022/06/05 05:20:00;;;;;;;15.77;6.57;;;;;;;;;;5026310;28;20057;-80
2022/06/05 05:22:46;;;;;;;14.63;6.43;;;;;;;;;;5039461;28;20422;-81
2022/06/05 05:25:32;;;;;;;11.20;6.43;;;;;;;;;;5033612;28;20049;-81
2022/06/05 05:28:18;;;;;;;17.88;6.80;;;;;;;;;;5033856;28;20046;-81
2022/06/05 05:31:08;;;;;;;12.93;6.80;;;;;;;;;;5019472;28;20048;-81
2022/06/05 05:33:55;;;;;;;10.40;5.93;;;;;;;;;;5026564;28;20041;-82
2022/06/05 05:36:40;;;;;;;11.80;6.00;;;;;;;;;;5033540;28;20050;-81
2022/06/05 05:42:30;;;;;;;9.55;5.60;;;;;;;;;;5033968;28;20037;-80
2022/06/05 05:45:16;;;;;;;10.20;5.00;;;;;;;;;;5033938;28;20042;-82
2022/06/05 05:48:02;;;;;;;16.15;5.78;;;;;;;;;;5040697;28;20046;-79
2022/06/05 05:50:47;;;;;;;8.50;5.68;;;;;;;;;;5040377;28;20050;-79
2022/06/05 05:53:32;;;;;;;11.32;5.68;;;;;;;;;;5038216;28;20049;-81
2022/06/05 05:56:18;;;;;;;13.65;5.70;;;;;;;;;;5044249;28;20042;-79
2022/06/05 05:59:03;;;;;;;13.05;5.93;;;;;;;;;;5043268;28;20398;-80
2022/06/05 06:01:48;;;;;;;16.38;6.40;;;;;;;;;;5023209;28;20038;-80
2022/06/05 06:04:34;;;;;;;9.45;5.75;;;;;;;;;;5044071;28;20046;-79
2022/06/05 06:07:20;;;;;;;10.30;5.60;;;;;;;;;;5037590;28;20046;-79
2022/06/05 06:10:07;;;;;;;11.32;5.88;;;;;;;;;;5044131;28;20045;-80
2022/06/05 06:12:52;;;;;;;11.63;6.05;;;;;;;;;;5044581;28;20037;-79
2022/06/05 06:15:38;;;;;;;10.02;6.10;;;;;;;;;;5037639;28;20041;-80
2022/06/05 06:18:23;;;;;;;10.10;6.47;;;;;;;;;;5043671;28;20037;-79
2022/06/05 06:21:08;;;;;;;19.13;10.30;;;;;;;;;;5043916;28;20049;-80
2022/06/05 06:23:54;;;;;;;15.93;10.10;;;;;;;;;;5044024;28;20045;-79
2022/06/05 06:26:40;;;;;;;10.55;6.50;;;;;;;;;;5043999;28;20049;-79
2022/06/05 06:29:26;;;;;;;13.52;6.30;;;;;;;;;;5037814;28;20033;-79
2022/06/05 06:32:12;;;;;;;17.48;8.57;;;;;;;;;;5037315;28;20398;-79
2022/06/05 06:34:57;;;;;;;13.40;5.45;;;;;;;;;;5037483;28;20045;-79
2022/06/05 06:37:43;;;;;;;10.45;5.78;;;;;;;;;;5039380;28;20046;-80
2022/06/05 06:40:28;;;;;;;12.75;5.95;;;;;;;;;;5038457;28;20041;-80
2022/06/05 06:43:15;;;;;;;10.65;5.05;;;;;;;;;;5044310;28;20491;-80
2022/06/05 06:46:02;;;;;;;9.15;5.63;;;;;;;;;;5036876;28;20049;-80
2022/06/05 06:48:48;;;;;;;11.68;5.63;;;;;;;;;;5038385;28;20487;-80
2022/06/05 06:51:34;;;;;;;153.18;118.03;;;;;;;;;;5044946;28;20045;-81
2022/06/05 06:54:20;;;;;;;13.05;6.05;;;;;;;;;;5037451;28;20037;-79
2022/06/05 06:57:06;;;;;;;11.15;6.07;;;;;;;;;;5043270;28;20045;-81
2022/06/05 06:59:52;;;;;;;17.38;5.97;;;;;;;;;;5043696;28;20042;-80
2022/06/05 07:02:37;;;;;;;12.52;8.43;;;;;;;;;;5036654;28;20049;-80
2022/06/05 07:05:23;;;;;;;13.32;7.25;;;;;;;;;;5037803;28;20487;-81
2022/06/05 07:08:09;;;;;;;15.70;8.48;;;;;;;;;;5036894;28;20045;-80
2022/06/05 07:10:55;;;;;;;24.40;12.02;;;;;;;;;;5043723;28;20041;-80
2022/06/05 07:13:41;;;;;;;16.15;6.25;;;;;;;;;;5042948;28;20045;-78
2022/06/05 07:16:26;;;;;;;10.98;6.35;;;;;;;;;;5036824;28;20045;-79
2022/06/05 07:19:12;;;;;;;10.38;5.55;;;;;;;;;;5036310;28;20049;-81
2022/06/05 07:21:57;;;;;;;8.68;5.10;;;;;;;;;;5042831;28;20049;-81
2022/06/05 07:24:43;;;;;;;7.80;4.85;;;;;;;;;;5049582;28;20041;-79
2022/06/05 07:27:29;;;;;;;10.82;4.57;;;;;;;;;;5040071;28;20482;-81
2022/06/05 07:30:14;;;;;;;12.30;5.13;;;;;;;;;;5042056;28;20479;-81
2022/06/05 07:33:00;;;;;;;12.15;4.25;;;;;;;;;;5041656;28;20037;-79
2022/06/05 07:35:45;;;;;;;7.00;3.90;;;;;;;;;;5042220;28;20045;-77
2022/06/05 07:38:32;;;;;;;10.98;4.32;;;;;;;;;;5035696;28;20399;-77
2022/06/05 07:41:29;;;;;;;7.53;4.30;;;;;;;;;;5042307;28;20079;-77
2022/06/05 07:44:16;;;;;;;7.72;4.03;;;;;;;;;;5035646;28;20045;-82
2022/06/05 07:47:07;;;;;;;11.18;4.22;;;;;;;;;;5043926;28;20041;-82
2022/06/05 07:49:53;;;;;;;5.88;3.50;;;;;;;;;;5041239;28;20490;-81
2022/06/05 07:55:43;;;;;;;;;;;;;;;;;;5035017;28;20045;-82
2022/06/05 07:58:27;;;;;;;6.35;3.25;;;;;;;;;;5027886;28;19913;-82
2022/06/05 08:01:12;;;;;;;8.80;4.15;;;;;;;;;;5042280;28;20041;-82
2022/06/05 08:03:58;;;;;;;10.75;3.95;;;;;;;;;;5035719;28;20041;-82
2022/06/05 08:06:44;;;;;;;7.70;3.30;;;;;;;;;;5042068;28;20395;-82
2022/06/05 08:09:30;;;;;;;8.60;3.90;;;;;;;;;;5035711;28;20038;-82
2022/06/05 08:12:19;;;;;;;9.50;4.28;;;;;;;;;;5042414;28;20045;-83
2022/06/05 08:15:08;;;;;;;12.15;4.70;;;;;;;;;;5034724;28;20041;-82
2022/06/05 08:17:54;;;;;;;8.00;4.28;;;;;;;;;;5041972;28;20037;-82
2022/06/05 08:20:39;;;;;;;9.27;4.75;;;;;;;;;;5042437;28;20037;-82
2022/06/05 08:23:25;;;;;;;13.40;4.78;;;;;;;;;;5042085;28;20053;-83
2022/06/05 08:26:13;;;;;;;8.20;4.85;;;;;;;;;;5043013;28;20049;-84
2022/06/05 08:28:58;;;;;;;11.98;5.10;;;;;;;;;;5034760;28;20045;-83
2022/06/05 08:31:44;;;;;;;13.43;4.45;;;;;;;;;;5034824;28;20045;-82
2022/06/05 08:34:30;;;;;;;12.23;5.10;;;;;;;;;;5041948;28;20045;-81
2022/06/05 08:43:48;;;;;;;8.80;4.38;;;;;;;;;;5041728;28;20045;-82
2022/06/05 08:46:42;;;;;;;11.57;4.47;;;;;;;;;;5020032;28;20041;-82
2022/06/05 08:49:36;;;;;;;12.57;3.95;;;;;;;;;;5035182;28;20042;-81
2022/06/05 08:52:48;;;;;;;5.43;3.50;;;;;;;;;;5034765;28;20041;-80
2022/06/05 08:55:44;;;;;;;8.57;3.88;;;;;;;;;;5039952;28;20045;-80
2022/06/05 08:59:10;;;;;;;7.07;3.88;;;;;;;;;;5039987;28;20045;-80
2022/06/05 09:02:17;;;;;;;7.93;3.33;;;;;;;;;;5023189;28;20046;-78
2022/06/05 09:05:12;;;;;;;5.95;2.97;;;;;;;;;;5040802;28;20045;-77
2022/06/05 09:08:23;;;;;;;;;;;;;;;;;;5034765;28;20045;-78
2022/06/05 09:11:20;;;;;;;7.93;3.40;;;;;;;;;;5040699;28;19913;-77
2022/06/05 09:14:17;;;;;;;7.65;2.70;;;;;;;;;;5034018;28;20041;-78
2022/06/05 09:17:13;;;;;;;6.00;2.83;;;;;;;;;;5034084;28;20045;-78
2022/06/05 09:19:58;;;;;;;7.00;2.97;;;;;;;;;;5040480;28;20049;-78
2022/06/05 09:22:57;;;;;;;8.52;2.85;;;;;;;;;;5040365;28;20049;-78
2022/06/05 09:26:11;;;;;;;13.25;3.47;;;;;;;;;;5033837;28;20045;-79
2022/06/05 09:29:06;;;;;;;6.78;2.90;;;;;;;;;;5034448;28;20053;-78
2022/06/05 09:31:58;;;;;;;12.02;3.38;;;;;;;;;;5034332;28;20046;-78
2022/06/05 09:34:51;;;;;;;5.95;2.67;;;;;;;;;;5039997;28;20479;-80
2022/06/05 09:37:50;;;;;;;7.28;3.00;;;;;;;;;;5035757;28;20057;-80
2022/06/05 09:40:38;;;;;;;4.13;2.85;;;;;;;;;;5050479;28;20045;-81
2022/06/05 09:43:44;;;;;;;7.72;3.17;;;;;;;;;;5045930;28;20041;-80
2022/06/05 09:46:48;;;;;;;10.40;3.20;;;;;;;;;;5040170;28;20045;-81
2022/06/05 09:49:48;;;;;;;6.60;2.95;;;;;;;;;;5033665;28;20049;-81
2022/06/05 09:52:34;;;;;;;5.25;2.75;;;;;;;;;;5040262;28;20045;-79
2022/06/05 09:55:23;;;;;;;5.95;2.80;;;;;;;;;;5033494;28;20041;-79
2022/06/05 09:58:40;;;;;;;5.13;2.53;;;;;;;;;;5039703;28;20045;-79
2022/06/05 10:01:34;;;;;;;7.00;2.35;;;;;;;;;;5038998;28;20038;-80
2022/06/05 10:04:20;;;;;;;5.82;2.33;;;;;;;;;;5033596;28;20046;-80
2022/06/05 10:07:24;;;;;;;4.82;2.80;;;;;;;;;;5040810;28;20485;-79
2022/06/05 10:10:20;;;;;;;7.03;2.65;;;;;;;;;;5040375;28;20049;-80
2022/06/05 10:13:28;;;;;;;4.45;2.38;;;;;;;;;;5040061;28;20041;-79
2022/06/05 10:16:51;;;;;;;11.02;2.97;;;;;;;;;;5032619;28;20045;-79
2022/06/05 10:20:13;;;;;;;9.77;3.00;;;;;;;;;;5020122;28;20045;-80
2022/06/05 10:23:08;;;;;;;8.55;2.15;;;;;;;;;;5040564;28;20041;-80
2022/06/05 10:26:31;;;;;;;10.32;2.35;;;;;;;;;;5033797;28;20049;-87
2022/06/05 10:29:36;;;;;;;6.10;2.55;;;;;;;;;;5035352;28;20049;-85
2022/06/05 10:32:45;;;;;;;3.88;2.30;;;;;;;;;;5038998;28;20033;-83
2022/06/05 10:35:46;;;;;;;5.47;2.85;;;;;;;;;;5025434;28;20041;-82
2022/06/05 10:38:52;;;;;;;8.98;2.40;;;;;;;;;;5043474;28;20049;-80
2022/06/05 10:41:59;;;;;;;6.97;2.50;;;;;;;;;;5044364;28;20463;-81
2022/06/05 10:45:13;;;;;;;5.40;2.78;;;;;;;;;;5036933;28;20049;-80
2022/06/05 10:48:24;;;;;;;4.38;2.42;;;;;;;;;;5036882;28;20046;-79
2022/06/05 10:51:33;;;;;;;7.65;2.63;;;;;;;;;;5037290;28;20037;-80
2022/06/05 10:54:54;;;;;;;10.48;2.60;;;;;;;;;;5000749;28;20402;-80
2022/06/05 10:57:49;;;;;;;8.18;2.75;;;;;;;;;;5043530;28;20045;-82
2022/06/05 11:00:59;;;;;;;4.15;2.45;;;;;;;;;;5037095;28;20467;-82
2022/06/05 11:04:09;;;;;;;5.35;2.28;;;;;;;;;;5033950;28;20045;-80
2022/06/05 11:07:18;;;;;;;4.40;2.22;;;;;;;;;;5043459;28;20045;-78
2022/06/05 11:10:04;;;;;;;3.58;2.22;;;;;;;;;;5028814;28;20045;-81
2022/06/05 11:16:12;;;;;;;4.60;2.38;;;;;;;;;;5036703;28;20045;-81
2022/06/05 11:19:20;;;;;;;6.13;2.22;;;;;;;;;;5036253;28;20487;-81
2022/06/05 11:22:12;;;;;;;4.47;2.25;;;;;;;;;;5036356;28;20041;-81
2022/06/05 11:25:10;;;;;;;4.15;2.20;;;;;;;;;;5036331;28;20053;-81
2022/06/05 11:28:21;;;;;;;9.25;2.58;;;;;;;;;;5036042;28;20108;-81
2022/06/05 11:31:31;;;;;;;5.03;2.28;;;;;;;;;;5036114;28;20049;-81
2022/06/05 11:34:33;;;;;;;5.07;2.10;;;;;;;;;;5036941;28;20104;-81
2022/06/05 11:37:34;;;;;;;5.13;2.20;;;;;;;;;;5038385;28;20053;-81
2022/06/05 11:40:45;;;;;;;5.25;2.40;;;;;;;;;;5038952;28;20046;-80
2022/06/05 11:43:37;;;;;;;6.10;2.13;;;;;;;;;;5042961;28;20479;-80
2022/06/05 11:46:35;;;;;;;7.57;2.58;;;;;;;;;;5042712;28;20045;-81
2022/06/05 11:49:35;;;;;;;4.78;2.40;;;;;;;;;;5041728;28;20045;-81
2022/06/05 11:52:48;;;;;;;6.00;2.60;;;;;;;;;;5036322;28;20395;-81
2022/06/05 11:55:40;;;;;;;5.45;2.40;;;;;;;;;;5032083;28;20049;-80
2022/06/05 11:58:31;;;;;;;5.20;2.30;;;;;;;;;;5052813;28;20042;-81
2022/06/05 12:01:26;;;;;;;6.88;2.45;;;;;;;;;;5036274;28;20042;-81
2022/06/05 12:04:27;;;;;;;6.30;2.30;;;;;;;;;;5043050;28;20049;-82
2022/06/05 12:07:14;;;;;;;6.45;2.40;;;;;;;;;;5035305;28;20049;-82
2022/06/05 12:10:10;;;;;;;4.57;2.53;;;;;;;;;;5035596;28;20049;-82
2022/06/05 12:13:09;;;;;;;5.78;2.30;;;;;;;;;;5035583;28;20038;-82
2022/06/05 12:15:58;;;;;;;3.95;2.50;;;;;;;;;;5042638;28;20041;-81
2022/06/05 12:18:56;;;;;;;4.78;2.53;;;;;;;;;;5035545;28;20033;-80
2022/06/05 12:22:31;;;;;;;5.43;2.45;;;;;;;;;;5035870;28;20045;-81
2022/06/05 12:25:20;;;;;;;9.63;2.27;;;;;;;;;;5028815;28;20045;-80
2022/06/05 12:28:15;;;;;;;7.57;2.38;;;;;;;;;;5036205;28;20042;-79
2022/06/05 12:31:28;;;;;;;6.20;2.40;;;;;;;;;;5043432;28;20053;-79
2022/06/05 12:34:27;;;;;;;7.28;2.28;;;;;;;;;;5035595;28;20419;-80
2022/06/05 12:37:39;;;;;;;6.63;2.40;;;;;;;;;;5038032;28;20058;-79
2022/06/05 12:40:31;;;;;;;3.83;2.20;;;;;;;;;;5034822;28;20043;-79
2022/06/05 12:43:44;;;;;;;3.85;2.65;;;;;;;;;;5042122;28;20049;-80
2022/06/05 12:47:10;;;;;;;6.10;2.30;;;;;;;;;;5034698;28;20045;-78
2022/06/05 12:49:56;;;;;;;6.45;2.30;;;;;;;;;;5010923;28;20045;-79
2022/06/05 12:52:51;;;;;;;8.55;2.40;;;;;;;;;;5034608;28;20033;-80
2022/06/05 12:55:46;;;;;;;5.15;2.10;;;;;;;;;;5035340;28;20383;-81
2022/06/05 12:58:46;;;;;;;6.85;2.28;;;;;;;;;;5026891;28;20041;-80
2022/06/05 13:01:38;;;;;;;10.13;2.95;;;;;;;;;;5040826;28;20104;-80
2022/06/05 13:04:36;;;;;;;3.92;2.28;;;;;;;;;;5034641;28;20045;-80
2022/06/05 13:07:30;;;;;;;6.85;2.40;;;;;;;;;;5041223;28;20046;-80
2022/06/05 13:10:41;;;;;;;5.53;2.42;;;;;;;;;;5034682;28;20399;-80
2022/06/05 13:13:34;;;;;;;4.55;2.20;;;;;;;;;;5040979;28;20288;-79
2022/06/05 13:16:32;;;;;;;6.72;2.53;;;;;;;;;;5034492;28;20045;-79
2022/06/05 13:19:23;;;;;;;5.93;2.38;;;;;;;;;;5034873;28;20071;-80
2022/06/05 13:22:28;;;;;;;7.00;2.30;;;;;;;;;;5034593;28;20395;-82
2022/06/05 13:25:21;;;;;;;9.02;2.50;;;;;;;;;;5034664;28;20403;-81
2022/06/05 13:28:06;;;;;;;4.72;2.17;;;;;;;;;;5034043;28;20398;-80
2022/06/05 13:30:52;;;;;;;6.15;2.50;;;;;;;;;;5040824;28;20046;-80
2022/06/05 13:33:51;;;;;;;3.42;2.15;;;;;;;;;;5033921;28;20046;-80
2022/06/05 13:36:50;;;;;;;8.85;2.45;;;;;;;;;;5038371;28;20045;-81
2022/06/05 13:39:51;;;;;;;6.38;2.35;;;;;;;;;;5040491;28;20037;-80
2022/06/05 13:42:39;;;;;;;5.88;2.60;;;;;;;;;;5032655;28;20041;-80
2022/06/05 13:45:51;;;;;;;5.68;2.28;;;;;;;;;;5040714;28;20049;-79
2022/06/05 13:48:40;;;;;;;6.80;2.33;;;;;;;;;;5040014;28;20415;-80
2022/06/05 13:51:33;;;;;;;10.43;2.40;;;;;;;;;;5040564;28;20037;-80
2022/06/05 13:54:37;;;;;;;9.98;2.85;;;;;;;;;;5033612;28;20482;-80
2022/06/05 13:57:27;;;;;;;8.98;2.35;;;;;;;;;;5033561;28;20399;-80
2022/06/05 14:00:31;;;;;;;6.93;2.28;;;;;;;;;;5033810;28;20053;-81
2022/06/05 14:03:37;;;;;;;14.48;2.20;;;;;;;;;;5040105;28;20352;-81
2022/06/05 14:06:31;;;;;;;6.32;2.35;;;;;;;;;;5012506;28;20053;-82
2022/06/05 14:09:29;;;;;;;4.93;2.15;;;;;;;;;;5033842;28;20050;-81
2022/06/05 14:12:28;;;;;;;8.98;2.58;;;;;;;;;;5035264;28;20045;-80
2022/06/05 14:15:49;;;;;;;6.97;2.25;;;;;;;;;;5049964;28;20046;-82
2022/06/05 14:18:42;;;;;;;4.80;2.47;;;;;;;;;;5044423;28;20470;-80
2022/06/05 14:21:32;;;;;;;5.15;2.60;;;;;;;;;;5037555;28;20046;-80
2022/06/05 14:24:26;;;;;;;7.68;2.30;;;;;;;;;;5037233;28;20398;-81
2022/06/05 14:27:16;;;;;;;;;;;;;;;;;;5037666;28;20046;-80
2022/06/05 14:30:27;;;;;;;6.57;2.33;;;;;;;;;;5037042;28;19913;-81
2022/06/05 14:33:19;;;;;;;9.45;2.40;;;;;;;;;;5037504;28;20045;-79
2022/06/05 14:36:06;;;;;;;7.47;2.28;;;;;;;;;;5037193;28;20045;-81
2022/06/05 14:39:05;;;;;;;7.68;2.55;;;;;;;;;;5043724;28;20033;-80
2022/06/05 14:41:59;;;;;;;3.78;2.30;;;;;;;;;;5037279;28;20049;-80
2022/06/05 14:45:03;;;;;;;9.07;2.65;;;;;;;;;;5037327;28;20046;-80
2022/06/05 14:48:03;;;;;;;11.50;2.95;;;;;;;;;;5037041;28;20038;-76
2022/06/05 14:51:02;;;;;;;8.25;2.72;;;;;;;;;;5037042;28;20041;-80
2022/06/05 14:53:57;;;;;;;5.32;2.17;;;;;;;;;;5037376;28;20467;-81
2022/06/05 15:00:15;;;;;;;6.00;2.13;;;;;;;;;;5036894;28;20041;-78
2022/06/05 15:03:14;;;;;;;6.75;2.20;;;;;;;;;;5036945;28;20395;-79
2022/06/05 15:06:02;;;;;;;5.88;1.98;;;;;;;;;;5036772;28;20097;-78
2022/06/05 15:09:07;;;;;;;4.70;2.30;;;;;;;;;;5036527;28;20037;-79
2022/06/05 15:12:23;;;;;;;10.82;3.13;;;;;;;;;;5037428;28;20045;-78
2022/06/05 15:15:10;;;;;;;5.80;2.40;;;;;;;;;;5043205;28;20395;-78
2022/06/05 15:17:58;;;;;;;10.02;2.30;;;;;;;;;;5042606;28;20041;-75
2022/06/05 15:21:34;;;;;;;4.15;2.28;;;;;;;;;;5036112;28;20045;-79
2022/06/05 15:24:34;;;;;;;6.63;2.50;;;;;;;;;;5012830;28;20037;-81
2022/06/05 15:27:27;;;;;;;7.50;2.35;;;;;;;;;;5035975;28;20041;-78
2022/06/05 15:30:31;;;;;;;7.75;2.30;;;;;;;;;;5042939;28;20057;-80
2022/06/05 15:33:40;;;;;;;8.65;2.10;;;;;;;;;;5036070;28;20042;-80
2022/06/05 15:36:29;;;;;;;5.18;1.85;;;;;;;;;;5036188;28;20046;-77
2022/06/05 15:39:49;;;;;;;5.97;2.20;;;;;;;;;;5035916;28;20049;-80
2022/06/05 15:42:36;;;;;;;7.70;2.28;;;;;;;;;;5042627;28;20049;-80
2022/06/05 15:45:28;;;;;;;6.90;2.42;;;;;;;;;;5042448;28;20037;-79
2022/06/05 15:48:53;;;;;;;7.93;2.40;;;;;;;;;;5036111;28;20045;-80
2022/06/05 15:51:58;;;;;;;6.40;2.75;;;;;;;;;;5036435;28;20045;-80
2022/06/05 15:55:04;;;;;;;;;;;;;;;;;;5043151;28;20053;-80
2022/06/05 15:58:18;;;;;;;8.48;2.25;;;;;;;;;;5013522;28;19913;-80
2022/06/05 16:01:34;;;;;;;8.73;2.30;;;;;;;;;;5036000;28;20482;-81
2022/06/05 16:04:27;;;;;;;6.38;2.28;;;;;;;;;;5042723;28;20037;-80
2022/06/05 16:07:18;;;;;;;6.57;2.17;;;;;;;;;;5042657;28;20037;-82
2022/06/05 16:10:27;;;;;;;6.65;2.00;;;;;;;;;;5042293;28;20041;-81
2022/06/05 16:13:13;;;;;;;4.30;2.08;;;;;;;;;;5035665;28;20045;-81
2022/06/05 16:16:11;;;;;;;5.22;2.28;;;;;;;;;;5042086;28;20049;-80
2022/06/05 16:19:03;;;;;;;5.30;2.08;;;;;;;;;;5042364;28;20041;-82
2022/06/05 16:22:11;;;;;;;5.75;2.40;;;;;;;;;;5041959;28;20474;-81
2022/06/05 16:25:21;;;;;;;7.60;2.20;;;;;;;;;;5035892;28;20053;-80
2022/06/05 16:28:27;;;;;;;4.88;2.00;;;;;;;;;;5050025;28;20041;-85
2022/06/05 16:31:18;;;;;;;4.88;2.15;;;;;;;;;;5027214;28;20045;-82
2022/06/05 16:34:10;;;;;;;6.85;2.28;;;;;;;;;;5041782;28;20046;-83
2022/06/05 16:40:04;;;;;;;5.93;2.50;;;;;;;;;;5034983;28;20034;-81
2022/06/05 16:43:18;;;;;;;4.90;2.35;;;;;;;;;;5035053;28;20045;-81
2022/06/05 16:46:08;;;;;;;5.50;2.38;;;;;;;;;;5034942;28;20041;-81
2022/06/05 16:48:57;;;;;;;5.07;2.65;;;;;;;;;;5034415;28;20057;-83
2022/06/05 16:51:48;;;;;;;6.78;2.47;;;;;;;;;;5041535;28;20033;-81
2022/06/05 16:54:37;;;;;;;4.28;2.50;;;;;;;;;;5041283;28;20483;-81
2022/06/05 16:57:23;;;;;;;5.65;2.70;;;;;;;;;;5034532;28;20038;-82
2022/06/05 17:00:08;;;;;;;7.38;2.55;;;;;;;;;;5026842;28;20038;-82
2022/06/05 17:02:54;;;;;;;6.90;2.70;;;;;;;;;;5041219;28;20037;-82
2022/06/05 17:06:26;;;;;;;6.75;2.83;;;;;;;;;;5034636;28;20045;-86
2022/06/05 17:09:23;;;;;;;5.82;3.08;;;;;;;;;;5034618;28;20045;-83
2022/06/05 17:12:08;;;;;;;8.52;3.30;;;;;;;;;;5040062;28;20053;-83
2022/06/05 17:14:57;;;;;;;7.63;3.03;;;;;;;;;;5035315;28;20041;-83
2022/06/05 17:17:43;;;;;;;10.27;3.38;;;;;;;;;;5041286;28;20487;-83
2022/06/05 17:20:33;;;;;;;9.50;3.38;;;;;;;;;;5034425;28;20415;-81
2022/06/05 17:23:19;;;;;;;6.40;3.35;;;;;;;;;;5040064;28;20049;-79
2022/06/05 17:26:17;;;;;;;6.18;3.50;;;;;;;;;;5040712;28;20491;-79
2022/06/05 17:29:18;;;;;;;12.23;3.60;;;;;;;;;;5040813;28;20042;-79
2022/06/05 17:32:30;;;;;;;8.48;3.67;;;;;;;;;;5040763;28;20633;-80
2022/06/05 17:35:34;;;;;;;5.95;3.22;;;;;;;;;;4989006;28;20045;-79
2022/06/05 17:38:28;;;;;;;9.80;3.42;;;;;;;;;;5020915;28;20054;-79
2022/06/05 17:41:25;;;;;;;5.75;3.30;;;;;;;;;;5013246;28;20065;-79
2022/06/05 17:44:51;;;;;;;9.75;3.33;;;;;;;;;;5020860;28;20034;-80
2022/06/05 17:47:43;;;;;;;6.50;3.10;;;;;;;;;;5007883;28;20042;-79
2022/06/05 17:50:37;;;;;;;10.40;3.50;;;;;;;;;;5021546;28;20046;-79